Lions Head, Canada
Current Conditions -  °F | °C
As of 3:00 AM on Tuesday 27 Jan 2015 (Local Time) from CYVV Reporting Station
Clear Clear  
Wind Chill: -3°   Ceiling: Unl
Heat Index:   Visibility: 15mi
Dew Point:   Wind: 6mph
Humidity: 79%   Direction: 70°ENE
Pressure: 30.02"   Gusts: NA
Location:  44.98°N, 81.26°W
Report Text: CYVV 270800Z 07005KT 15SM SKC M14/M17 A3002 RMK SLP184
Loading
Personal Weather Stations






























Interactive Weather Map New forecast layout! Learn more

10-Day Weather Forecast

Advertisements
Track Severe Weather on mobile